createdAt,value
2023-03-27T00:01:42.906Z,77.49
2023-03-27T00:06:45.484Z,77.50
2023-03-27T00:11:47.816Z,77.80
2023-03-27T00:16:49.376Z,77.78
2023-03-27T00:21:50.926Z,78.14
2023-03-27T00:26:52.470Z,77.96
2023-03-27T00:31:54.027Z,78.07
2023-03-27T00:36:55.959Z,78.05
2023-03-27T00:41:57.879Z,78.62
2023-03-27T00:47:02.800Z,78.47
2023-03-27T00:52:07.022Z,78.87
2023-03-27T00:57:14.227Z,78.82
2023-03-27T01:02:17.855Z,79.30
2023-03-27T01:07:20.116Z,79.19
2023-03-27T01:12:46.233Z,79.45
2023-03-27T01:18:16.079Z,79.70
2023-03-27T01:23:59.399Z,80.09
2023-03-27T01:29:30.406Z,80.16
2023-03-27T01:35:03.486Z,80.41
2023-03-27T01:40:22.119Z,80.67
2023-03-27T01:45:30.762Z,80.35
2023-03-27T01:50:51.575Z,80.41
2023-03-27T01:55:59.785Z,80.72
2023-03-27T02:01:03.241Z,80.52
2023-03-27T02:06:21.920Z,80.50
2023-03-27T02:11:29.458Z,80.89
2023-03-27T02:16:35.781Z,80.97
2023-03-27T02:21:39.160Z,81.30
2023-03-27T02:26:41.645Z,81.25
2023-03-27T02:31:51.594Z,81.58
2023-03-27T02:37:52.041Z,81.72
2023-03-27T02:43:33.392Z,82.07
2023-03-27T02:48:49.835Z,82.28
2023-03-27T02:53:57.728Z,82.43
2023-03-27T02:59:40.451Z,82.61
2023-03-27T03:04:57.272Z,82.38
2023-03-27T03:10:11.610Z,82.94
2023-03-27T03:15:13.250Z,83.29
2023-03-27T03:20:16.492Z,83.67
2023-03-27T03:25:18.010Z,84.04
2023-03-27T03:30:19.625Z,84.11
2023-03-27T03:35:29.846Z,84.44
2023-03-27T03:40:32.752Z,84.67
2023-03-27T03:45:34.285Z,84.40
2023-03-27T03:50:35.932Z,84.99
2023-03-27T03:55:37.820Z,85.08
2023-03-27T04:00:40.003Z,85.00
2023-03-27T04:05:48.868Z,85.37
2023-03-27T04:10:50.606Z,85.71
2023-03-27T04:16:18.170Z,85.61
2023-03-27T04:21:26.652Z,86.10
2023-03-27T04:26:29.576Z,86.09
2023-03-27T04:31:51.826Z,86.14
2023-03-27T04:37:13.019Z,86.46
2023-03-27T04:42:23.472Z,86.58
2023-03-27T04:47:25.316Z,87.10
2023-03-27T04:52:34.096Z,86.96
2023-03-27T04:57:36.016Z,86.97
2023-03-27T05:02:38.245Z,87.36
2023-03-27T05:07:52.165Z,87.54
2023-03-27T05:12:58.506Z,87.66
2023-03-27T05:18:00.546Z,87.84
2023-03-27T05:23:02.624Z,88.22
2023-03-27T05:28:05.611Z,88.28
2023-03-27T05:33:14.838Z,88.42
2023-03-27T05:38:17.325Z,88.47
2023-03-27T05:43:27.095Z,88.22
2023-03-27T05:48:28.908Z,88.54
2023-03-27T05:53:36.256Z,88.47
2023-03-27T05:59:00.158Z,88.27
2023-03-27T06:04:04.403Z,88.29
2023-03-27T06:09:23.208Z,88.19
2023-03-27T06:14:43.718Z,88.20
2023-03-27T06:20:15.213Z,88.23
2023-03-27T06:25:26.027Z,88.08
2023-03-27T06:30:30.345Z,88.13
2023-03-27T06:35:52.896Z,88.09
2023-03-27T06:41:04.775Z,88.03
2023-03-27T06:46:44.575Z,87.86
2023-03-27T06:51:59.114Z,87.43
2023-03-27T06:57:01.638Z,87.16
2023-03-27T07:02:12.096Z,87.29
2023-03-27T07:07:41.488Z,86.91
2023-03-27T07:12:50.654Z,86.73
2023-03-27T07:17:57.684Z,86.77
2023-03-27T07:23:04.222Z,86.45
2023-03-27T07:28:24.524Z,86.56
2023-03-27T07:33:33.118Z,100.00
2023-03-27T07:38:35.992Z,100.00
2023-03-27T07:43:59.883Z,100.00
2023-03-27T07:49:11.340Z,100.00
2023-03-27T07:54:47.461Z,100.00
2023-03-27T08:00:11.712Z,100.00
2023-03-27T08:05:28.008Z,100.00
2023-03-27T08:10:54.038Z,100.00
2023-03-27T08:16:19.223Z,100.00
2023-03-27T08:21:31.529Z,100.00
2023-03-27T08:27:55.698Z,100.00
2023-03-27T09:01:29.763Z,65.70
2023-03-27T09:08:17.092Z,65.91
2023-03-27T09:53:36.091Z,65.82
2023-03-27T09:59:56.012Z,63.96
2023-03-27T10:05:38.887Z,63.96
2023-03-27T10:18:02.707Z,60.06
2023-03-27T10:23:45.823Z,61.12
2023-03-27T10:29:10.542Z,62.30
2023-03-27T10:35:13.346Z,62.92
2023-03-27T10:41:57.727Z,62.92
2023-03-27T10:47:22.485Z,67.65
2023-03-27T10:53:31.080Z,70.03
2023-03-27T10:58:53.217Z,71.75
2023-03-27T11:04:32.172Z,71.53
2023-03-27T11:09:48.608Z,71.94
2023-03-27T11:15:04.606Z,72.25
2023-03-27T11:20:21.095Z,100.00
2023-03-27T11:25:51.591Z,100.00
2023-03-27T11:31:35.838Z,100.00
2023-03-27T11:36:55.229Z,100.00
2023-03-27T11:42:17.756Z,65.28
2023-03-27T11:47:38.945Z,62.85
2023-03-27T11:52:58.351Z,62.85
2023-03-27T11:58:46.511Z,62.85
2023-03-27T12:17:13.068Z,67.21
2023-03-27T12:23:09.729Z,66.59
2023-03-27T12:35:00.579Z,65.92
2023-03-27T12:40:38.198Z,64.96
2023-03-27T12:46:49.203Z,66.88
2023-03-27T12:53:32.265Z,69.67
2023-03-27T12:58:26.550Z,71.72
2023-03-27T13:09:53.448Z,100.00
2023-03-27T13:15:02.563Z,100.00
2023-03-27T13:20:41.965Z,100.00
2023-03-27T13:26:08.537Z,100.00
2023-03-27T13:31:46.728Z,100.00
2023-03-27T13:37:36.654Z,100.00
2023-03-27T13:43:14.317Z,100.00
2023-03-27T13:48:43.200Z,100.00
2023-03-27T13:54:02.230Z,100.00
2023-03-27T13:59:55.666Z,100.00
2023-03-27T14:05:24.833Z,100.00
2023-03-27T14:10:35.692Z,100.00
2023-03-27T14:16:03.102Z,100.00
2023-03-27T14:21:24.470Z,100.00
2023-03-27T14:26:35.885Z,100.00
2023-03-27T14:31:38.146Z,100.00
2023-03-27T14:36:46.423Z,100.00
2023-03-27T14:42:03.363Z,100.00
2023-03-27T14:47:13.688Z,100.00
2023-03-27T14:52:33.291Z,100.00
2023-03-27T14:58:10.845Z,100.00
2023-03-27T15:03:19.018Z,100.00
2023-03-27T15:08:25.612Z,100.00
2023-03-27T15:13:47.512Z,100.00
2023-03-27T15:19:12.270Z,100.00
2023-03-27T15:24:25.006Z,100.00
2023-03-27T15:29:42.774Z,100.00
2023-03-27T15:34:51.132Z,100.00
2023-03-27T15:40:01.011Z,100.00
2023-03-27T15:45:04.679Z,100.00
2023-03-27T15:50:26.882Z,100.00
2023-03-27T15:55:37.781Z,100.00
2023-03-27T16:00:50.891Z,100.00
2023-03-27T16:05:55.742Z,100.00
2023-03-27T16:10:58.921Z,100.00
2023-03-27T16:16:27.070Z,100.00
2023-03-27T16:21:33.448Z,100.00
2023-03-27T16:26:35.836Z,100.00
2023-03-27T16:31:38.803Z,100.00
2023-03-27T16:36:41.549Z,100.00
2023-03-27T16:41:45.456Z,100.00
2023-03-27T16:46:47.084Z,100.00
2023-03-27T16:51:48.640Z,100.00
2023-03-27T16:56:52.200Z,100.00
2023-03-27T17:01:57.004Z,100.00
2023-03-27T17:06:59.409Z,100.00
2023-03-27T17:12:01.510Z,100.00
2023-03-27T17:17:04.143Z,100.00
2023-03-27T17:22:05.788Z,100.00
2023-03-27T17:27:09.499Z,100.00
2023-03-27T17:32:11.407Z,100.00
2023-03-27T17:37:13.452Z,100.00
2023-03-27T17:42:16.009Z,100.00
2023-03-27T17:47:22.831Z,100.00
2023-03-27T17:52:30.039Z,100.00
2023-03-27T17:57:37.805Z,100.00
2023-03-27T18:02:39.442Z,100.00
2023-03-27T18:07:41.024Z,100.00
2023-03-27T18:12:44.446Z,100.00
2023-03-27T18:17:47.426Z,100.00
2023-03-27T18:22:49.211Z,100.00
2023-03-27T18:27:50.995Z,100.00
2023-03-27T18:32:53.569Z,100.00
2023-03-27T18:37:55.651Z,100.00
2023-03-27T18:42:57.191Z,100.00
2023-03-27T18:47:58.789Z,100.00
2023-03-27T18:53:00.351Z,100.00
2023-03-27T18:58:02.060Z,100.00
2023-03-27T19:03:04.934Z,100.00
2023-03-27T19:08:06.734Z,100.00
2023-03-27T19:13:09.277Z,100.00
2023-03-27T19:18:32.144Z,100.00
2023-03-27T19:23:49.921Z,100.00
2023-03-27T19:28:56.847Z,100.00
2023-03-27T19:33:59.604Z,100.00
2023-03-27T19:39:01.214Z,100.00
2023-03-27T19:44:03.468Z,100.00
2023-03-27T19:49:05.289Z,100.00
2023-03-27T19:54:31.138Z,100.00
2023-03-27T19:59:33.961Z,100.00
2023-03-27T20:04:35.589Z,100.00
2023-03-27T20:09:39.300Z,100.00
2023-03-27T20:14:40.907Z,100.00
2023-03-27T20:19:46.122Z,100.00
2023-03-27T20:24:48.930Z,100.00
2023-03-27T20:29:50.670Z,100.00
2023-03-27T20:34:54.661Z,100.00
2023-03-27T20:40:01.765Z,100.00
2023-03-27T20:45:04.600Z,100.00
2023-03-27T20:50:09.446Z,100.00
2023-03-27T20:55:22.865Z,100.00
2023-03-27T21:00:28.368Z,100.00
2023-03-27T21:05:30.040Z,100.00
2023-03-27T21:10:31.626Z,100.00
2023-03-27T21:15:33.544Z,100.00
2023-03-27T21:20:37.119Z,100.00
2023-03-27T21:25:38.901Z,100.00
2023-03-27T21:30:46.341Z,100.00
2023-03-27T21:35:49.684Z,100.00
2023-03-27T21:40:51.282Z,100.00
2023-03-27T21:45:52.860Z,100.00
2023-03-27T21:51:04.949Z,100.00
2023-03-27T21:56:10.383Z,100.00
2023-03-27T22:01:12.025Z,100.00
2023-03-27T22:06:13.881Z,100.00
2023-03-27T22:11:15.438Z,100.00
2023-03-27T22:16:17.772Z,100.00
2023-03-27T22:21:23.836Z,100.00
2023-03-27T22:26:39.910Z,100.00
2023-03-27T22:31:45.642Z,100.00
2023-03-27T22:36:48.165Z,100.00
2023-03-27T22:41:51.661Z,100.00
2023-03-27T22:46:53.314Z,100.00
2023-03-27T22:51:55.344Z,100.00
2023-03-27T22:56:58.814Z,100.00
2023-03-27T23:02:03.942Z,100.00
2023-03-27T23:07:05.897Z,100.00
2023-03-27T23:12:07.468Z,100.00
2023-03-27T23:17:09.046Z,100.00
2023-03-27T23:22:13.318Z,100.00
2023-03-27T23:27:14.856Z,100.00
2023-03-27T23:32:16.453Z,100.00
2023-03-27T23:37:28.395Z,100.00
2023-03-27T23:42:33.356Z,100.00
2023-03-27T23:47:34.880Z,100.00
2023-03-27T23:52:37.924Z,100.00
2023-03-27T23:57:39.758Z,100.00
